ADDS METAR Data INFO
IDs: Format: Raw Decoded Include TAF

Data at: 0112 UTC 25 May 2018

METAR for:KFNL (Fort Collins/Lovelan, CO, US)
Text:KFNL 250056Z AUTO 21006KT 10SM BKN120 22/08 A3005 RMK AO2 RAE15 SLP127 P0000 T02170078
Temperature: 21.7°C ( 71°F)
Dewpoint: 7.8°C ( 46°F) [RH = 41%]
Pressure (altimeter):30.05 inches Hg (1017.7 mb) [Sea level pressure: 1012.7 mb]
Winds:from the SSW (210 degrees) at 7 MPH (6 knots; 3.1 m/s)
Visibility:10 or more sm (16+ km)
Ceiling:12000 feet AGL
Clouds: broken clouds at 12000 feet AGL
QC Flag:automated observation with no human augmentation
Text:KFNL 242356Z AUTO 21007G20KT 170V250 10SM -RA FEW031 BKN075 OVC120 23/05 A3005 RMK AO2 PK WND 35033/2331 TSB37E52RAB16 SLP129 P0000 60000 T02280050 10283 20217 56004
Temperature: 22.8°C ( 73°F)
Dewpoint: 5.0°C ( 41°F) [RH = 31%]
Pressure (altimeter):30.05 inches Hg (1017.7 mb) [Sea level pressure: 1012.9 mb]
Winds:from the SSW (210 degrees) at 8 MPH (7 knots; 3.6 m/s) gusting to 23 MPH (20 knots; 10.3 m/s)
Visibility:10 or more sm (16+ km)
Ceiling:7500 feet AGL
Clouds: few clouds at 3100 feet AGL, broken clouds at 7500 feet AGL, overcast cloud deck at 12000 feet AGL
Weather:-RA (light rain)
QC Flag:automated observation with no human augmentation
Text:KFNL 242343Z AUTO 30006G19KT 10SM VCTS -RA FEW055 BKN090 OVC120 24/04 A3005 RMK AO2 PK WND 35033/2331 TSB37RAB16 P0000
Temperature: 24.0°C ( 75°F)
Dewpoint: 4.0°C ( 39°F) [RH = 27%]
Pressure (altimeter):30.05 inches Hg (1017.7 mb)
Winds:from the WNW (300 degrees) at 7 MPH (6 knots; 3.1 m/s) gusting to 22 MPH (19 knots; 9.8 m/s)
Visibility:10 or more sm (16+ km)
Ceiling:9000 feet AGL
Clouds: few clouds at 5500 feet AGL, broken clouds at 9000 feet AGL, overcast cloud deck at 12000 feet AGL
Weather:VCTS -RA (thunderstorm in vicinity, light rain)
QC Flag:automated observation with no human augmentation
Text:KFNL 242256Z AUTO 12006KT 10SM FEW090 BKN120 26/06 A3005 RMK AO2 SLP129 T02560056
Temperature: 25.6°C ( 78°F)
Dewpoint: 5.6°C ( 42°F) [RH = 28%]
Pressure (altimeter):30.05 inches Hg (1017.7 mb) [Sea level pressure: 1012.9 mb]
Winds:from the ESE (120 degrees) at 7 MPH (6 knots; 3.1 m/s)
Visibility:10 or more sm (16+ km)
Ceiling:12000 feet AGL
Clouds: few clouds at 9000 feet AGL, broken clouds at 12000 feet AGL
QC Flag:automated observation with no human augmentation
Text:KFNL 242156Z AUTO VRB04KT 10SM SCT110 27/05 A3006 RMK AO2 TSE11 SLP124 T02670050
Temperature: 26.7°C ( 80°F)
Dewpoint: 5.0°C ( 41°F) [RH = 25%]
Pressure (altimeter):30.06 inches Hg (1018.0 mb) [Sea level pressure: 1012.4 mb]
Winds:variable direction winds at 5 MPH (4 knots; 2.1 m/s)
Visibility:10 or more sm (16+ km)
Ceiling:at least 12,000 feet AGL
Clouds: scattered clouds at 11000 feet AGL
QC Flag:automated observation with no human augmentation
Text:KFNL 242117Z AUTO VRB05KT 10SM FEW120 28/06 A3006 RMK AO2 TSE11
Temperature: 28.0°C ( 82°F)
Dewpoint: 6.0°C ( 43°F) [RH = 25%]
Pressure (altimeter):30.06 inches Hg (1018.0 mb)
Winds:variable direction winds at 6 MPH (5 knots; 2.6 m/s)
Visibility:10 or more sm (16+ km)
Ceiling:at least 12,000 feet AGL
Clouds: few clouds at 12000 feet AGL
QC Flag:automated observation with no human augmentation
Text:KFNL 242056Z AUTO 08007KT 10SM TS FEW095 27/05 A3006 RMK AO2 TSB56 SLP127 T02720050 56011
Temperature: 27.2°C ( 81°F)
Dewpoint: 5.0°C ( 41°F) [RH = 24%]
Pressure (altimeter):30.06 inches Hg (1018.0 mb) [Sea level pressure: 1012.7 mb]
Winds:from the E (80 degrees) at 8 MPH (7 knots; 3.6 m/s)
Visibility:10 or more sm (16+ km)
Ceiling:at least 12,000 feet AGL
Clouds: few clouds at 9500 feet AGL
Weather:TS (thunderstorm)
QC Flag:automated observation with no human augmentation
Text:KFNL 241956Z AUTO 26006KT 10SM CLR 27/05 A3007 RMK AO2 SLP128 T02670050
Temperature: 26.7°C ( 80°F)
Dewpoint: 5.0°C ( 41°F) [RH = 25%]
Pressure (altimeter):30.07 inches Hg (1018.4 mb) [Sea level pressure: 1012.8 mb]
Winds:from the W (260 degrees) at 7 MPH (6 knots; 3.1 m/s)
Visibility:10 or more sm (16+ km)
Ceiling:at least 12,000 feet AGL
Clouds:sky clear below 12,000 feet AGL
QC Flag:automated observation with no human augmentation
Text:KFNL 241856Z AUTO VRB04KT 10SM FEW120 27/08 A3009 RMK AO2 SLP130 T02720078
Temperature: 27.2°C ( 81°F)
Dewpoint: 7.8°C ( 46°F) [RH = 29%]
Pressure (altimeter):30.09 inches Hg (1019.0 mb) [Sea level pressure: 1013.0 mb]
Winds:variable direction winds at 5 MPH (4 knots; 2.1 m/s)
Visibility:10 or more sm (16+ km)
Ceiling:at least 12,000 feet AGL
Clouds: few clouds at 12000 feet AGL
QC Flag:automated observation with no human augmentation
Text:KFNL 241756Z AUTO VRB06KT 10SM CLR 25/09 A3010 RMK AO2 SLP137 T02500089 10250 20106 56008
Temperature: 25.0°C ( 77°F)
Dewpoint: 8.9°C ( 48°F) [RH = 36%]
Pressure (altimeter):30.10 inches Hg (1019.4 mb) [Sea level pressure: 1013.7 mb]
Winds:variable direction winds at 7 MPH (6 knots; 3.1 m/s)
Visibility:10 or more sm (16+ km)
Ceiling:at least 12,000 feet AGL
Clouds:sky clear below 12,000 feet AGL
QC Flag:automated observation with no human augmentation
Text:KFNL 241656Z AUTO 19010KT 10SM CLR 23/10 A3011 RMK AO2 SLP139 T02330100
Temperature: 23.3°C ( 74°F)
Dewpoint: 10.0°C ( 50°F) [RH = 43%]
Pressure (altimeter):30.11 inches Hg (1019.7 mb) [Sea level pressure: 1013.9 mb]
Winds:from the S (190 degrees) at 12 MPH (10 knots; 5.1 m/s)
Visibility:10 or more sm (16+ km)
Ceiling:at least 12,000 feet AGL
Clouds:sky clear below 12,000 feet AGL
QC Flag:automated observation with no human augmentation
Text:KFNL 241556Z AUTO 17006KT 10SM CLR 22/09 A3012 RMK AO2 SLP144 T02170089
Temperature: 21.7°C ( 71°F)
Dewpoint: 8.9°C ( 48°F) [RH = 44%]
Pressure (altimeter):30.12 inches Hg (1020.1 mb) [Sea level pressure: 1014.4 mb]
Winds:from the S (170 degrees) at 7 MPH (6 knots; 3.1 m/s)
Visibility:10 or more sm (16+ km)
Ceiling:at least 12,000 feet AGL
Clouds:sky clear below 12,000 feet AGL
QC Flag:automated observation with no human augmentation
Text:KFNL 241456Z AUTO 22005KT 10SM CLR 19/08 A3013 RMK AO2 SLP153 T01940083 50007
Temperature: 19.4°C ( 67°F)
Dewpoint: 8.3°C ( 47°F) [RH = 49%]
Pressure (altimeter):30.13 inches Hg (1020.4 mb) [Sea level pressure: 1015.3 mb]
Winds:from the SW (220 degrees) at 6 MPH (5 knots; 2.6 m/s)
Visibility:10 or more sm (16+ km)
Ceiling:at least 12,000 feet AGL
Clouds:sky clear below 12,000 feet AGL
QC Flag:automated observation with no human augmentation
Text:KFNL 241356Z AUTO 23003KT 10SM CLR 17/08 A3013 RMK AO2 SLP155 T01670083
Temperature: 16.7°C ( 62°F)
Dewpoint: 8.3°C ( 47°F) [RH = 58%]
Pressure (altimeter):30.13 inches Hg (1020.4 mb) [Sea level pressure: 1015.5 mb]
Winds:from the SW (230 degrees) at 3 MPH (3 knots; 1.5 m/s)
Visibility:10 or more sm (16+ km)
Ceiling:at least 12,000 feet AGL
Clouds:sky clear below 12,000 feet AGL
QC Flag:automated observation with no human augmentation
Text:KFNL 241308Z AUTO 00000KT 10SM FEW002 14/07 A3013 RMK AO2
Temperature: 14.0°C ( 57°F)
Dewpoint: 7.0°C ( 45°F) [RH = 63%]
Pressure (altimeter):30.13 inches Hg (1020.4 mb)
Winds:calm
Visibility:10 or more sm (16+ km)
Ceiling:at least 12,000 feet AGL
Clouds: few clouds at 200 feet AGL
QC Flag:automated observation with no human augmentation
Text:KFNL 241256Z AUTO 22003KT 10SM CLR 13/08 A3013 RMK AO2 SLP151 T01330078
Temperature: 13.3°C ( 56°F)
Dewpoint: 7.8°C ( 46°F) [RH = 69%]
Pressure (altimeter):30.13 inches Hg (1020.4 mb) [Sea level pressure: 1015.1 mb]
Winds:from the SW (220 degrees) at 3 MPH (3 knots; 1.5 m/s)
Visibility:10 or more sm (16+ km)
Ceiling:at least 12,000 feet AGL
Clouds:sky clear below 12,000 feet AGL
QC Flag:automated observation with no human augmentation
Text:KFNL 241156Z AUTO 19005KT 10SM CLR 12/08 A3011 RMK AO2 SLP150 70020 T01170078 10156 20089 51015
Temperature: 11.7°C ( 53°F)
Dewpoint: 7.8°C ( 46°F) [RH = 77%]
Pressure (altimeter):30.11 inches Hg (1019.7 mb) [Sea level pressure: 1015.0 mb]
Winds:from the S (190 degrees) at 6 MPH (5 knots; 2.6 m/s)
Visibility:10 or more sm (16+ km)
Ceiling:at least 12,000 feet AGL
Clouds:sky clear below 12,000 feet AGL
QC Flag:automated observation with no human augmentation
Text:KFNL 240956Z AUTO 13008KT 10SM CLR 12/07 A3008 RMK AO2 SLP133 T01170072
Temperature: 11.7°C ( 53°F)
Dewpoint: 7.2°C ( 45°F) [RH = 74%]
Pressure (altimeter):30.08 inches Hg (1018.7 mb) [Sea level pressure: 1013.3 mb]
Winds:from the SE (130 degrees) at 9 MPH (8 knots; 4.1 m/s)
Visibility:10 or more sm (16+ km)
Ceiling:at least 12,000 feet AGL
Clouds:sky clear below 12,000 feet AGL
QC Flag:automated observation with no human augmentation
Text:KFNL 240856Z AUTO 34008KT 10SM CLR 12/09 A3006 RMK AO2 SLP127 T01170089 50002
Temperature: 11.7°C ( 53°F)
Dewpoint: 8.9°C ( 48°F) [RH = 83%]
Pressure (altimeter):30.06 inches Hg (1018.0 mb) [Sea level pressure: 1012.7 mb]
Winds:from the NNW (340 degrees) at 9 MPH (8 knots; 4.1 m/s)
Visibility:10 or more sm (16+ km)
Ceiling:at least 12,000 feet AGL
Clouds:sky clear below 12,000 feet AGL
QC Flag:automated observation with no human augmentation
Text:KFNL 240756Z AUTO 36008KT 10SM CLR 13/10 A3006 RMK AO2 SLP127 T01330100
Temperature: 13.3°C ( 56°F)
Dewpoint: 10.0°C ( 50°F) [RH = 80%]
Pressure (altimeter):30.06 inches Hg (1018.0 mb) [Sea level pressure: 1012.7 mb]
Winds:from the N (360 degrees) at 9 MPH (8 knots; 4.1 m/s)
Visibility:10 or more sm (16+ km)
Ceiling:at least 12,000 feet AGL
Clouds:sky clear below 12,000 feet AGL
QC Flag:automated observation with no human augmentation
Text:KFNL 240656Z AUTO 36004KT 10SM CLR 14/11 A3006 RMK AO2 SLP128 T01440106 402610089
Temperature: 14.4°C ( 58°F)
Dewpoint: 10.6°C ( 51°F) [RH = 78%]
Pressure (altimeter):30.06 inches Hg (1018.0 mb) [Sea level pressure: 1012.8 mb]
Winds:from the N (360 degrees) at 5 MPH (4 knots; 2.1 m/s)
Visibility:10 or more sm (16+ km)
Ceiling:at least 12,000 feet AGL
Clouds:sky clear below 12,000 feet AGL
QC Flag:automated observation with no human augmentation
Text:KFNL 240556Z AUTO 36007KT 10SM CLR 16/11 A3005 RMK AO2 SLP123 60003 T01560111 10250 20156 51021
Temperature: 15.6°C ( 60°F)
Dewpoint: 11.1°C ( 52°F) [RH = 75%]
Pressure (altimeter):30.05 inches Hg (1017.7 mb) [Sea level pressure: 1012.3 mb]
Winds:from the N (360 degrees) at 8 MPH (7 knots; 3.6 m/s)
Visibility:10 or more sm (16+ km)
Ceiling:at least 12,000 feet AGL
Clouds:sky clear below 12,000 feet AGL
QC Flag:automated observation with no human augmentation
Text:KFNL 240456Z AUTO 02008KT 10SM CLR 17/12 A3003 RMK AO2 SLP118 P0001 T01670117
Temperature: 16.7°C ( 62°F)
Dewpoint: 11.7°C ( 53°F) [RH = 72%]
Pressure (altimeter):30.03 inches Hg (1017.0 mb) [Sea level pressure: 1011.8 mb]
Winds:from the NNE (20 degrees) at 9 MPH (8 knots; 4.1 m/s)
Visibility:10 or more sm (16+ km)
Ceiling:at least 12,000 feet AGL
Clouds:sky clear below 12,000 feet AGL
QC Flag:automated observation with no human augmentation
Text:KFNL 240356Z AUTO 06006KT 10SM CLR 18/11 A3001 RMK AO2 SLP111 T01780111
Temperature: 17.8°C ( 64°F)
Dewpoint: 11.1°C ( 52°F) [RH = 65%]
Pressure (altimeter):30.01 inches Hg (1016.3 mb) [Sea level pressure: 1011.1 mb]
Winds:from the ENE (60 degrees) at 7 MPH (6 knots; 3.1 m/s)
Visibility:10 or more sm (16+ km)
Ceiling:at least 12,000 feet AGL
Clouds:sky clear below 12,000 feet AGL
QC Flag:automated observation with no human augmentation
Text:KFNL 240256Z AUTO 34008KT 10SM CLR 17/11 A2998 RMK AO2 SLP105 60002 T01670111 53004
Temperature: 16.7°C ( 62°F)
Dewpoint: 11.1°C ( 52°F) [RH = 70%]
Pressure (altimeter):29.98 inches Hg (1015.3 mb) [Sea level pressure: 1010.5 mb]
Winds:from the NNW (340 degrees) at 9 MPH (8 knots; 4.1 m/s)
Visibility:10 or more sm (16+ km)
Ceiling:at least 12,000 feet AGL
Clouds:sky clear below 12,000 feet AGL
QC Flag:automated observation with no human augmentation
Text:KFNL 240156Z AUTO 33006KT 10SM CLR 19/12 A2995 RMK AO2 SLP097 P0001 T01940117
Temperature: 19.4°C ( 67°F)
Dewpoint: 11.7°C ( 53°F) [RH = 61%]
Pressure (altimeter):29.95 inches Hg (1014.3 mb) [Sea level pressure: 1009.7 mb]
Winds:from the NNW (330 degrees) at 7 MPH (6 knots; 3.1 m/s)
Visibility:10 or more sm (16+ km)
Ceiling:at least 12,000 feet AGL
Clouds:sky clear below 12,000 feet AGL
QC Flag:automated observation with no human augmentation
Text:KFNL 240056Z AUTO 08004KT 10SM CLR 24/09 A2994 RMK AO2 SLP085 P0001 T02440089
Temperature: 24.4°C ( 76°F)
Dewpoint: 8.9°C ( 48°F) [RH = 37%]
Pressure (altimeter):29.94 inches Hg (1014.0 mb) [Sea level pressure: 1008.5 mb]
Winds:from the E (80 degrees) at 5 MPH (4 knots; 2.1 m/s)
Visibility:10 or more sm (16+ km)
Ceiling:at least 12,000 feet AGL
Clouds:sky clear below 12,000 feet AGL
QC Flag:automated observation with no human augmentation
Text:KFNL 232356Z AUTO 31004KT 3SM HZ FEW120 21/13 A2996 RMK AO2 SLP105 P0001 60012 T02110133 10261 20211 55004
Temperature: 21.1°C ( 70°F)
Dewpoint: 13.3°C ( 56°F) [RH = 61%]
Pressure (altimeter):29.96 inches Hg (1014.6 mb) [Sea level pressure: 1010.5 mb]
Winds:from the NW (310 degrees) at 5 MPH (4 knots; 2.1 m/s)
Visibility: 3 sm ( 5 km)
Ceiling:at least 12,000 feet AGL
Clouds: few clouds at 12000 feet AGL
Weather:HZ (haze)
QC Flag:automated observation with no human augmentation
Text:KFNL 232256Z AUTO 00000KT 10SM CLR 25/07 A2995 RMK AO2 SLP095 P0002 T02500072
Temperature: 25.0°C ( 77°F)
Dewpoint: 7.2°C ( 45°F) [RH = 32%]
Pressure (altimeter):29.95 inches Hg (1014.3 mb) [Sea level pressure: 1009.5 mb]
Winds:calm
Visibility:10 or more sm (16+ km)
Ceiling:at least 12,000 feet AGL
Clouds:sky clear below 12,000 feet AGL
QC Flag:automated observation with no human augmentation
Text:KFNL 232156Z AUTO 09008KT 10SM CLR 26/11 A2995 RMK AO2 SLP092 P0002 T02560111
Temperature: 25.6°C ( 78°F)
Dewpoint: 11.1°C ( 52°F) [RH = 40%]
Pressure (altimeter):29.95 inches Hg (1014.3 mb) [Sea level pressure: 1009.2 mb]
Winds:from the E (90 degrees) at 9 MPH (8 knots; 4.1 m/s)
Visibility:10 or more sm (16+ km)
Ceiling:at least 12,000 feet AGL
Clouds:sky clear below 12,000 feet AGL
QC Flag:automated observation with no human augmentation
Text:KFNL 232056Z AUTO 12008G16KT 10SM FEW055 25/11 A2997 RMK AO2 LTG DSNT E SLP098 P0002 60007 T02500106 56015
Temperature: 25.0°C ( 77°F)
Dewpoint: 10.6°C ( 51°F) [RH = 40%]
Pressure (altimeter):29.97 inches Hg (1015.0 mb) [Sea level pressure: 1009.8 mb]
Winds:from the ESE (120 degrees) at 9 MPH (8 knots; 4.1 m/s) gusting to 18 MPH (16 knots; 8.2 m/s)
Visibility:10 or more sm (16+ km)
Ceiling:at least 12,000 feet AGL
Clouds: few clouds at 5500 feet AGL
QC Flag:automated observation with no human augmentation
Text:KFNL 231956Z AUTO 17007KT 10SM CLR 24/12 A2998 RMK AO2 LTG DSNT SE AND NW SLP102 P0003 T02440117
Temperature: 24.4°C ( 76°F)
Dewpoint: 11.7°C ( 53°F) [RH = 45%]
Pressure (altimeter):29.98 inches Hg (1015.3 mb) [Sea level pressure: 1010.2 mb]
Winds:from the S (170 degrees) at 8 MPH (7 knots; 3.6 m/s)
Visibility:10 or more sm (16+ km)
Ceiling:at least 12,000 feet AGL
Clouds:sky clear below 12,000 feet AGL
QC Flag:automated observation with no human augmentation
Text:KFNL 231856Z AUTO 18008KT 10SM FEW120 22/13 A3001 RMK AO2 SLP115 P0002 T02220128
Temperature: 22.2°C ( 72°F)
Dewpoint: 12.8°C ( 55°F) [RH = 55%]
Pressure (altimeter):30.01 inches Hg (1016.3 mb) [Sea level pressure: 1011.5 mb]
Winds:from the S (180 degrees) at 9 MPH (8 knots; 4.1 m/s)
Visibility:10 or more sm (16+ km)
Ceiling:at least 12,000 feet AGL
Clouds: few clouds at 12000 feet AGL
QC Flag:automated observation with no human augmentation
Text:KFNL 231756Z AUTO 22007KT 10SM CLR 22/12 A3002 RMK AO2 LTG DSNT NW SLP118 P0002 60005 T02170117 10217 20089 55006
Temperature: 21.7°C ( 71°F)
Dewpoint: 11.7°C ( 53°F) [RH = 53%]
Pressure (altimeter):30.02 inches Hg (1016.7 mb) [Sea level pressure: 1011.8 mb]
Winds:from the SW (220 degrees) at 8 MPH (7 knots; 3.6 m/s)
Visibility:10 or more sm (16+ km)
Ceiling:at least 12,000 feet AGL
Clouds:sky clear below 12,000 feet AGL
QC Flag:automated observation with no human augmentation
Text:KFNL 231656Z AUTO 17006KT 10SM CLR 20/11 A3002 RMK AO2 SLP118 P0001 T02000111
Temperature: 20.0°C ( 68°F)
Dewpoint: 11.1°C ( 52°F) [RH = 57%]
Pressure (altimeter):30.02 inches Hg (1016.7 mb) [Sea level pressure: 1011.8 mb]
Winds:from the S (170 degrees) at 7 MPH (6 knots; 3.1 m/s)
Visibility:10 or more sm (16+ km)
Ceiling:at least 12,000 feet AGL
Clouds:sky clear below 12,000 feet AGL
QC Flag:automated observation with no human augmentation
Text:KFNL 231556Z AUTO 17006KT 10SM CLR 18/11 A3003 RMK AO2 SLP129 P0001 T01780106
Temperature: 17.8°C ( 64°F)
Dewpoint: 10.6°C ( 51°F) [RH = 63%]
Pressure (altimeter):30.03 inches Hg (1017.0 mb) [Sea level pressure: 1012.9 mb]
Winds:from the S (170 degrees) at 7 MPH (6 knots; 3.1 m/s)
Visibility:10 or more sm (16+ km)
Ceiling:at least 12,000 feet AGL
Clouds:sky clear below 12,000 feet AGL
QC Flag:automated observation with no human augmentation
Text:KFNL 231456Z AUTO VRB03KT 10SM CLR 16/11 A3004 RMK AO2 SLP134 60001 T01610106 51003
Temperature: 16.1°C ( 61°F)
Dewpoint: 10.6°C ( 51°F) [RH = 70%]
Pressure (altimeter):30.04 inches Hg (1017.4 mb) [Sea level pressure: 1013.4 mb]
Winds:variable direction winds at 3 MPH (3 knots; 1.5 m/s)
Visibility:10 or more sm (16+ km)
Ceiling:at least 12,000 feet AGL
Clouds:sky clear below 12,000 feet AGL
QC Flag:automated observation with no human augmentation
Text:KFNL 231356Z AUTO 34003KT 10SM CLR 13/10 A3004 RMK AO2 SLP136 P0001 T01280100
Temperature: 12.8°C ( 55°F)
Dewpoint: 10.0°C ( 50°F) [RH = 83%]
Pressure (altimeter):30.04 inches Hg (1017.4 mb) [Sea level pressure: 1013.6 mb]
Winds:from the NNW (340 degrees) at 3 MPH (3 knots; 1.5 m/s)
Visibility:10 or more sm (16+ km)
Ceiling:at least 12,000 feet AGL
Clouds:sky clear below 12,000 feet AGL
QC Flag:automated observation with no human augmentation